sensor_id;sensor_type;location;lat;lon;timestamp;pressure;altitude;pressure_sealevel;temperature;humidity
74881;BME280;63427;49.654;6.596;2023-05-07T00:02:15;99629.66;;;15.86;41.70
74881;BME280;63427;49.654;6.596;2023-05-07T00:04:40;99634.73;;;15.94;41.61
74881;BME280;63427;49.654;6.596;2023-05-07T00:07:05;99636.13;;;15.67;41.69
74881;BME280;63427;49.654;6.596;2023-05-07T00:09:31;99638.00;;;15.64;41.50
74881;BME280;63427;49.654;6.596;2023-05-07T00:11:56;99641.49;;;15.77;41.58
74881;BME280;63427;49.654;6.596;2023-05-07T00:14:21;99640.80;;;15.74;42.03
74881;BME280;63427;49.654;6.596;2023-05-07T00:16:47;99634.08;;;15.36;42.18
74881;BME280;63427;49.654;6.596;2023-05-07T00:19:12;99631.68;;;15.70;42.11
74881;BME280;63427;49.654;6.596;2023-05-07T00:21:38;99627.15;;;15.45;42.64
74881;BME280;63427;49.654;6.596;2023-05-07T00:24:04;99626.36;;;14.92;42.49
74881;BME280;63427;49.654;6.596;2023-05-07T00:26:29;99627.51;;;15.55;42.02
74881;BME280;63427;49.654;6.596;2023-05-07T00:28:54;99624.62;;;15.36;42.59
74881;BME280;63427;49.654;6.596;2023-05-07T00:31:19;99626.35;;;15.21;42.82
74881;BME280;63427;49.654;6.596;2023-05-07T00:33:45;99630.82;;;15.27;42.89
74881;BME280;63427;49.654;6.596;2023-05-07T00:36:11;99629.36;;;14.95;43.06
74881;BME280;63427;49.654;6.596;2023-05-07T00:38:36;99626.36;;;15.08;42.76
74881;BME280;63427;49.654;6.596;2023-05-07T00:41:01;99625.01;;;15.20;42.26
74881;BME280;63427;49.654;6.596;2023-05-07T00:43:26;99622.79;;;14.93;42.81
74881;BME280;63427;49.654;6.596;2023-05-07T00:45:52;99623.16;;;14.95;42.45
74881;BME280;63427;49.654;6.596;2023-05-07T00:48:18;99623.52;;;14.99;42.48
74881;BME280;63427;49.654;6.596;2023-05-07T00:50:43;99624.10;;;14.86;42.47
74881;BME280;63427;49.654;6.596;2023-05-07T00:53:08;99624.56;;;15.05;42.59
74881;BME280;63427;49.654;6.596;2023-05-07T00:55:35;99621.31;;;15.00;42.43
74881;BME280;63427;49.654;6.596;2023-05-07T00:57:59;99619.45;;;15.16;41.36
74881;BME280;63427;49.654;6.596;2023-05-07T01:00:25;99615.17;;;15.35;41.16
74881;BME280;63427;49.654;6.596;2023-05-07T01:02:50;99611.69;;;14.62;42.37
74881;BME280;63427;49.654;6.596;2023-05-07T01:05:17;99618.03;;;14.53;42.87
74881;BME280;63427;49.654;6.596;2023-05-07T01:07:42;99619.08;;;14.58;42.15
74881;BME280;63427;49.654;6.596;2023-05-07T01:10:08;99622.41;;;14.80;42.11
74881;BME280;63427;49.654;6.596;2023-05-07T01:12:33;99620.71;;;14.82;42.51
74881;BME280;63427;49.654;6.596;2023-05-07T01:14:58;99621.23;;;14.76;42.57
74881;BME280;63427;49.654;6.596;2023-05-07T01:17:23;99622.69;;;14.87;42.46
74881;BME280;63427;49.654;6.596;2023-05-07T01:19:48;99622.11;;;14.68;42.76
74881;BME280;63427;49.654;6.596;2023-05-07T01:22:15;99620.08;;;14.93;42.30
74881;BME280;63427;49.654;6.596;2023-05-07T01:24:40;99616.33;;;14.52;42.57
74881;BME280;63427;49.654;6.596;2023-05-07T01:27:05;99613.20;;;14.17;42.93
74881;BME280;63427;49.654;6.596;2023-05-07T01:29:30;99614.35;;;14.07;43.48
74881;BME280;63427;49.654;6.596;2023-05-07T01:31:57;99615.32;;;14.22;42.82
74881;BME280;63427;49.654;6.596;2023-05-07T01:34:22;99613.80;;;14.81;42.67
74881;BME280;63427;49.654;6.596;2023-05-07T01:36:47;99612.63;;;14.30;43.10
74881;BME280;63427;49.654;6.596;2023-05-07T01:39:13;99611.51;;;14.35;42.78
74881;BME280;63427;49.654;6.596;2023-05-07T01:41:38;99616.05;;;14.30;42.70
74881;BME280;63427;49.654;6.596;2023-05-07T01:44:03;99622.19;;;14.47;42.88
74881;BME280;63427;49.654;6.596;2023-05-07T01:46:29;99619.98;;;14.19;43.04
74881;BME280;63427;49.654;6.596;2023-05-07T01:48:54;99618.21;;;14.18;42.71
74881;BME280;63427;49.654;6.596;2023-05-07T03:04:10;99628.14;;;13.55;42.54
74881;BME280;63427;49.654;6.596;2023-05-07T03:06:31;99622.43;;;14.04;42.64
74881;BME280;63427;49.654;6.596;2023-05-07T03:08:56;99619.93;;;13.61;42.48
74881;BME280;63427;49.654;6.596;2023-05-07T03:11:22;99620.71;;;13.56;42.45
74881;BME280;63427;49.654;6.596;2023-05-07T03:13:47;99623.16;;;13.49;42.67
74881;BME280;63427;49.654;6.596;2023-05-07T03:16:13;99620.29;;;13.54;42.70
74881;BME280;63427;49.654;6.596;2023-05-07T03:18:39;99616.85;;;13.57;43.55
74881;BME280;63427;49.654;6.596;2023-05-07T03:21:04;99615.81;;;13.36;43.06
74881;BME280;63427;49.654;6.596;2023-05-07T03:23:30;99616.49;;;13.30;43.28
74881;BME280;63427;49.654;6.596;2023-05-07T03:25:55;99616.55;;;13.52;42.72
74881;BME280;63427;49.654;6.596;2023-05-07T03:28:21;99613.14;;;13.49;42.52
74881;BME280;63427;49.654;6.596;2023-05-07T03:30:46;99607.74;;;13.29;43.40
74881;BME280;63427;49.654;6.596;2023-05-07T03:33:12;99607.05;;;13.42;42.51
74881;BME280;63427;49.654;6.596;2023-05-07T03:35:37;99601.26;;;13.30;42.93
74881;BME280;63427;49.654;6.596;2023-05-07T03:38:03;99597.75;;;13.07;43.22
74881;BME280;63427;49.654;6.596;2023-05-07T03:40:28;99593.34;;;13.10;43.08
74881;BME280;63427;49.654;6.596;2023-05-07T03:42:54;99596.83;;;13.26;42.69
74881;BME280;63427;49.654;6.596;2023-05-07T03:45:19;99600.42;;;13.20;42.60
74881;BME280;63427;49.654;6.596;2023-05-07T03:47:47;99602.59;;;13.07;43.89
74881;BME280;63427;49.654;6.596;2023-05-07T03:50:11;99602.40;;;12.98;44.04
74881;BME280;63427;49.654;6.596;2023-05-07T03:52:42;99605.93;;;13.13;43.12
74881;BME280;63427;49.654;6.596;2023-05-07T03:55:02;99607.45;;;12.82;44.17
74881;BME280;63427;49.654;6.596;2023-05-07T03:57:27;99611.97;;;12.91;44.44
74881;BME280;63427;49.654;6.596;2023-05-07T03:59:53;99612.81;;;12.90;44.32
74881;BME280;63427;49.654;6.596;2023-05-07T04:02:18;99613.41;;;12.87;44.65
74881;BME280;63427;49.654;6.596;2023-05-07T04:04:44;99612.01;;;12.97;44.18
74881;BME280;63427;49.654;6.596;2023-05-07T04:07:10;99611.97;;;12.83;44.61
74881;BME280;63427;49.654;6.596;2023-05-07T04:09:35;99610.65;;;12.94;44.51
74881;BME280;63427;49.654;6.596;2023-05-07T04:12:01;99609.93;;;13.03;44.51
74881;BME280;63427;49.654;6.596;2023-05-07T04:14:26;99612.54;;;12.83;44.09
74881;BME280;63427;49.654;6.596;2023-05-07T04:16:52;99613.32;;;13.12;43.51
74881;BME280;63427;49.654;6.596;2023-05-07T04:19:17;99619.32;;;13.15;44.18
74881;BME280;63427;49.654;6.596;2023-05-07T04:21:43;99619.98;;;13.18;44.19
74881;BME280;63427;49.654;6.596;2023-05-07T04:24:09;99622.29;;;13.21;44.47
74881;BME280;63427;49.654;6.596;2023-05-07T04:26:34;99619.22;;;13.17;44.65
74881;BME280;63427;49.654;6.596;2023-05-07T04:29:00;99619.26;;;13.33;43.38
74881;BME280;63427;49.654;6.596;2023-05-07T04:31:25;99618.85;;;13.17;44.01
74881;BME280;63427;49.654;6.596;2023-05-07T04:33:51;99622.09;;;13.51;43.38
74881;BME280;63427;49.654;6.596;2023-05-07T04:36:17;99625.16;;;13.23;44.07
74881;BME280;63427;49.654;6.596;2023-05-07T04:38:42;99623.17;;;13.61;44.22
74881;BME280;63427;49.654;6.596;2023-05-07T04:41:09;99620.31;;;13.63;44.61
74881;BME280;63427;49.654;6.596;2023-05-07T04:43:33;99621.54;;;13.79;44.32
74881;BME280;63427;49.654;6.596;2023-05-07T04:45:59;99619.57;;;13.36;45.06
74881;BME280;63427;49.654;6.596;2023-05-07T04:48:24;99616.15;;;13.50;45.03
74881;BME280;63427;49.654;6.596;2023-05-07T04:50:50;99619.22;;;13.89;44.75
74881;BME280;63427;49.654;6.596;2023-05-07T04:53:16;99615.40;;;13.76;44.21
74881;BME280;63427;49.654;6.596;2023-05-07T04:55:41;99613.24;;;13.51;45.10
74881;BME280;63427;49.654;6.596;2023-05-07T04:58:07;99616.17;;;13.53;44.21
74881;BME280;63427;49.654;6.596;2023-05-07T05:00:32;99618.91;;;13.79;44.93
74881;BME280;63427;49.654;6.596;2023-05-07T05:02:57;99618.02;;;13.66;44.05
74881;BME280;63427;49.654;6.596;2023-05-07T05:05:23;99623.34;;;13.72;44.49
74881;BME280;63427;49.654;6.596;2023-05-07T05:07:49;99630.11;;;13.98;43.73
74881;BME280;63427;49.654;6.596;2023-05-07T05:10:14;99631.52;;;14.03;42.87
74881;BME280;63427;49.654;6.596;2023-05-07T05:12:40;99630.46;;;14.29;43.41
74881;BME280;63427;49.654;6.596;2023-05-07T05:15:06;99629.99;;;14.23;43.44
74881;BME280;63427;49.654;6.596;2023-05-07T05:17:31;99629.87;;;14.25;44.34
74881;BME280;63427;49.654;6.596;2023-05-07T05:19:56;99631.02;;;14.40;44.27
74881;BME280;63427;49.654;6.596;2023-05-07T05:22:21;99635.42;;;13.96;44.35
74881;BME280;63427;49.654;6.596;2023-05-07T05:24:47;99637.50;;;14.44;44.58
74881;BME280;63427;49.654;6.596;2023-05-07T05:27:12;99641.31;;;14.74;43.01
74881;BME280;63427;49.654;6.596;2023-05-07T05:29:38;99644.57;;;14.61;42.89
74881;BME280;63427;49.654;6.596;2023-05-07T05:32:03;99642.91;;;14.69;43.16
74881;BME280;63427;49.654;6.596;2023-05-07T05:34:29;99641.97;;;15.03;43.60
74881;BME280;63427;49.654;6.596;2023-05-07T05:36:54;99644.05;;;14.64;43.54
74881;BME280;63427;49.654;6.596;2023-05-07T05:39:20;99645.88;;;14.76;43.47
74881;BME280;63427;49.654;6.596;2023-05-07T05:41:45;99644.03;;;14.91;43.75
74881;BME280;63427;49.654;6.596;2023-05-07T05:44:12;99646.44;;;14.83;43.40
74881;BME280;63427;49.654;6.596;2023-05-07T05:46:36;99650.15;;;15.44;42.02
74881;BME280;63427;49.654;6.596;2023-05-07T05:49:02;99647.27;;;15.37;41.87
74881;BME280;63427;49.654;6.596;2023-05-07T05:51:28;99644.81;;;15.55;42.51
74881;BME280;63427;49.654;6.596;2023-05-07T05:53:53;99648.80;;;15.55;42.93
74881;BME280;63427;49.654;6.596;2023-05-07T05:56:18;99648.91;;;15.55;43.41
74881;BME280;63427;49.654;6.596;2023-05-07T05:58:43;99645.20;;;15.89;42.50
74881;BME280;63427;49.654;6.596;2023-05-07T06:01:09;99646.31;;;15.69;42.05
74881;BME280;63427;49.654;6.596;2023-05-07T06:03:34;99649.76;;;15.69;41.21
74881;BME280;63427;49.654;6.596;2023-05-07T06:05:59;99654.73;;;15.74;41.80
74881;BME280;63427;49.654;6.596;2023-05-07T06:08:25;99656.55;;;15.82;41.70
74881;BME280;63427;49.654;6.596;2023-05-07T06:11:07;99653.12;;;15.94;41.81
74881;BME280;63427;49.654;6.596;2023-05-07T06:13:16;99649.35;;;16.23;41.09
74881;BME280;63427;49.654;6.596;2023-05-07T06:15:41;99653.73;;;16.28;41.04
74881;BME280;63427;49.654;6.596;2023-05-07T06:18:07;99661.47;;;16.49;41.47
74881;BME280;63427;49.654;6.596;2023-05-07T06:20:32;99666.37;;;16.39;41.49
74881;BME280;63427;49.654;6.596;2023-05-07T06:22:57;99668.51;;;16.66;40.27
74881;BME280;63427;49.654;6.596;2023-05-07T06:25:23;99672.48;;;16.76;41.27
74881;BME280;63427;49.654;6.596;2023-05-07T06:27:48;99674.91;;;16.70;41.16
74881;BME280;63427;49.654;6.596;2023-05-07T06:30:14;99676.45;;;16.65;41.96
74881;BME280;63427;49.654;6.596;2023-05-07T06:32:40;99677.93;;;17.01;41.22
74881;BME280;63427;49.654;6.596;2023-05-07T06:35:05;99676.70;;;16.96;41.29
74881;BME280;63427;49.654;6.596;2023-05-07T06:37:29;99679.93;;;17.28;40.62
74881;BME280;63427;49.654;6.596;2023-05-07T06:39:55;99685.52;;;17.50;40.11
74881;BME280;63427;49.654;6.596;2023-05-07T06:42:20;99684.34;;;17.25;40.04
74881;BME280;63427;49.654;6.596;2023-05-07T06:44:45;99685.24;;;17.66;39.56
74881;BME280;63427;49.654;6.596;2023-05-07T06:47:11;99688.49;;;17.82;40.21
74881;BME280;63427;49.654;6.596;2023-05-07T06:49:36;99686.86;;;17.62;39.95
74881;BME280;63427;49.654;6.596;2023-05-07T06:52:02;99678.00;;;17.92;39.92
74881;BME280;63427;49.654;6.596;2023-05-07T06:54:27;99681.48;;;18.24;39.75
74881;BME280;63427;49.654;6.596;2023-05-07T06:56:52;99681.42;;;18.20;39.82
74881;BME280;63427;49.654;6.596;2023-05-07T06:59:17;99682.01;;;18.45;39.92
74881;BME280;63427;49.654;6.596;2023-05-07T07:01:43;99681.25;;;18.45;39.51
74881;BME280;63427;49.654;6.596;2023-05-07T07:04:08;99681.96;;;18.65;39.44
74881;BME280;63427;49.654;6.596;2023-05-07T07:06:33;99679.67;;;18.49;38.89
74881;BME280;63427;49.654;6.596;2023-05-07T07:08:59;99680.04;;;18.91;38.69
74881;BME280;63427;49.654;6.596;2023-05-07T07:11:24;99679.22;;;18.62;38.89
74881;BME280;63427;49.654;6.596;2023-05-07T07:13:49;99677.77;;;18.87;38.71
74881;BME280;63427;49.654;6.596;2023-05-07T07:16:14;99675.53;;;18.78;37.86
74881;BME280;63427;49.654;6.596;2023-05-07T07:18:40;99678.51;;;19.27;37.61
74881;BME280;63427;49.654;6.596;2023-05-07T07:21:05;99671.84;;;19.32;37.57
74881;BME280;63427;49.654;6.596;2023-05-07T07:23:31;99669.52;;;19.47;37.23
74881;BME280;63427;49.654;6.596;2023-05-07T07:25:56;99668.78;;;19.31;37.16
74881;BME280;63427;49.654;6.596;2023-05-07T07:28:22;99668.90;;;19.75;36.73
74881;BME280;63427;49.654;6.596;2023-05-07T07:30:47;99672.96;;;20.22;36.37
74881;BME280;63427;49.654;6.596;2023-05-07T07:33:12;99669.69;;;19.94;36.25
74881;BME280;63427;49.654;6.596;2023-05-07T07:35:37;99666.29;;;20.48;35.68
74881;BME280;63427;49.654;6.596;2023-05-07T07:38:02;99663.77;;;20.29;36.66
74881;BME280;63427;49.654;6.596;2023-05-07T07:40:28;99662.16;;;20.48;36.74
74881;BME280;63427;49.654;6.596;2023-05-07T07:42:53;99657.97;;;20.66;35.82
74881;BME280;63427;49.654;6.596;2023-05-07T07:45:19;99657.65;;;20.54;36.15
74881;BME280;63427;49.654;6.596;2023-05-07T07:47:44;99656.58;;;20.60;35.64
74881;BME280;63427;49.654;6.596;2023-05-07T07:50:10;99659.54;;;21.13;35.69
74881;BME280;63427;49.654;6.596;2023-05-07T07:52:34;99665.86;;;21.53;34.83
74881;BME280;63427;49.654;6.596;2023-05-07T07:54:59;99669.52;;;21.20;35.19
74881;BME280;63427;49.654;6.596;2023-05-07T08:11:56;99667.71;;;22.63;32.79
74881;BME280;63427;49.654;6.596;2023-05-07T08:14:21;99666.32;;;23.44;32.00
74881;BME280;63427;49.654;6.596;2023-05-07T08:16:47;99665.00;;;22.83;32.00
74881;BME280;63427;49.654;6.596;2023-05-07T08:19:12;99667.21;;;23.06;32.23
74881;BME280;63427;49.654;6.596;2023-05-07T08:21:39;99667.82;;;23.61;31.05
74881;BME280;63427;49.654;6.596;2023-05-07T08:26:27;99672.25;;;23.48;31.30
74881;BME280;63427;49.654;6.596;2023-05-07T08:28:52;99674.63;;;23.56;30.49
74881;BME280;63427;49.654;6.596;2023-05-07T08:31:17;99676.09;;;23.81;30.26
74881;BME280;63427;49.654;6.596;2023-05-07T08:33:42;99675.02;;;23.40;30.88
74881;BME280;63427;49.654;6.596;2023-05-07T08:36:07;99676.24;;;24.04;30.88
74881;BME280;63427;49.654;6.596;2023-05-07T08:38:32;99675.68;;;24.09;30.62
74881;BME280;63427;49.654;6.596;2023-05-07T08:40:58;99671.00;;;24.15;30.50
74881;BME280;63427;49.654;6.596;2023-05-07T08:43:23;99669.17;;;24.33;29.97
74881;BME280;63427;49.654;6.596;2023-05-07T08:45:49;99667.21;;;24.17;30.64
74881;BME280;63427;49.654;6.596;2023-05-07T08:48:15;99663.41;;;24.44;29.97
74881;BME280;63427;49.654;6.596;2023-05-07T08:50:38;99660.94;;;24.43;30.00
74881;BME280;63427;49.654;6.596;2023-05-07T08:53:03;99659.49;;;24.38;30.75
74881;BME280;63427;49.654;6.596;2023-05-07T08:55:28;99663.38;;;24.59;30.47
74881;BME280;63427;49.654;6.596;2023-05-07T08:57:53;99663.80;;;24.65;30.14
74881;BME280;63427;49.654;6.596;2023-05-07T09:00:18;99665.21;;;24.84;29.86
74881;BME280;63427;49.654;6.596;2023-05-07T09:02:43;99667.88;;;24.97;29.57
74881;BME280;63427;49.654;6.596;2023-05-07T09:05:08;99668.71;;;25.11;29.74
74881;BME280;63427;49.654;6.596;2023-05-07T09:07:33;99669.75;;;25.30;29.30
74881;BME280;63427;49.654;6.596;2023-05-07T09:10:02;99670.72;;;25.36;29.30
74881;BME280;63427;49.654;6.596;2023-05-07T09:12:24;99670.53;;;25.35;28.62
74881;BME280;63427;49.654;6.596;2023-05-07T09:14:50;99671.69;;;25.67;29.23
74881;BME280;63427;49.654;6.596;2023-05-07T09:17:16;99669.57;;;25.73;29.00
74881;BME280;63427;49.654;6.596;2023-05-07T09:19:44;99671.80;;;25.54;28.80
74881;BME280;63427;49.654;6.596;2023-05-07T09:22:08;99666.56;;;25.64;28.29
74881;BME280;63427;49.654;6.596;2023-05-07T09:24:34;99665.54;;;25.98;28.36
74881;BME280;63427;49.654;6.596;2023-05-07T09:27:00;99667.09;;;26.05;27.59
74881;BME280;63427;49.654;6.596;2023-05-07T09:29:25;99670.53;;;26.23;28.76
74881;BME280;63427;49.654;6.596;2023-05-07T09:31:50;99675.53;;;26.28;27.31
74881;BME280;63427;49.654;6.596;2023-05-07T09:34:16;99680.25;;;26.41;27.12
74881;BME280;63427;49.654;6.596;2023-05-07T09:36:42;99679.98;;;26.51;27.22
74881;BME280;63427;49.654;6.596;2023-05-07T09:39:08;99681.13;;;26.33;27.72
74881;BME280;63427;49.654;6.596;2023-05-07T09:41:43;99680.50;;;26.56;28.43
74881;BME280;63427;49.654;6.596;2023-05-07T09:43:59;99681.53;;;26.73;27.03
74881;BME280;63427;49.654;6.596;2023-05-07T09:46:27;99677.31;;;26.99;26.84
74881;BME280;63427;49.654;6.596;2023-05-07T09:48:53;99678.43;;;27.23;26.45
74881;BME280;63427;49.654;6.596;2023-05-07T09:51:25;99679.95;;;27.03;25.95
74881;BME280;63427;49.654;6.596;2023-05-07T09:53:43;99678.01;;;27.46;25.91
74881;BME280;63427;49.654;6.596;2023-05-07T09:56:08;99671.03;;;27.72;25.00
74881;BME280;63427;49.654;6.596;2023-05-07T09:58:37;99664.96;;;27.40;25.52
74881;BME280;63427;49.654;6.596;2023-05-07T10:01:01;99658.82;;;27.63;25.72
74881;BME280;63427;49.654;6.596;2023-05-07T10:03:27;99654.88;;;27.79;24.58
74881;BME280;63427;49.654;6.596;2023-05-07T10:05:51;99652.86;;;27.87;24.12
74881;BME280;63427;49.654;6.596;2023-05-07T10:08:17;99651.19;;;27.92;25.19
74881;BME280;63427;49.654;6.596;2023-05-07T10:10:42;99652.59;;;28.15;25.08
74881;BME280;63427;49.654;6.596;2023-05-07T10:13:09;99657.20;;;27.90;24.33
74881;BME280;63427;49.654;6.596;2023-05-07T10:15:34;99662.08;;;28.11;22.85
74881;BME280;63427;49.654;6.596;2023-05-07T10:18:00;99666.54;;;28.36;23.48
74881;BME280;63427;49.654;6.596;2023-05-07T10:20:26;99670.68;;;28.30;22.96
74881;BME280;63427;49.654;6.596;2023-05-07T10:22:52;99671.25;;;28.35;22.75
74881;BME280;63427;49.654;6.596;2023-05-07T10:25:20;99670.19;;;28.47;23.18
74881;BME280;63427;49.654;6.596;2023-05-07T10:27:43;99670.05;;;28.30;23.49
74881;BME280;63427;49.654;6.596;2023-05-07T10:30:15;99667.74;;;28.50;24.62
74881;BME280;63427;49.654;6.596;2023-05-07T10:32:39;99663.83;;;28.70;23.76
74881;BME280;63427;49.654;6.596;2023-05-07T10:35:03;99663.94;;;28.72;23.28
74881;BME280;63427;49.654;6.596;2023-05-07T10:37:26;99666.43;;;28.90;23.11
74881;BME280;63427;49.654;6.596;2023-05-07T10:39:52;99669.65;;;28.77;23.42
74881;BME280;63427;49.654;6.596;2023-05-07T10:42:17;99668.86;;;28.80;22.75
74881;BME280;63427;49.654;6.596;2023-05-07T10:44:43;99665.95;;;28.75;22.76
74881;BME280;63427;49.654;6.596;2023-05-07T10:47:10;99665.30;;;28.71;23.10
74881;BME280;63427;49.654;6.596;2023-05-07T10:49:35;99665.41;;;28.78;23.46
74881;BME280;63427;49.654;6.596;2023-05-07T10:52:11;99669.87;;;28.86;21.82
74881;BME280;63427;49.654;6.596;2023-05-07T10:54:26;99672.30;;;28.78;20.99
74881;BME280;63427;49.654;6.596;2023-05-07T10:56:52;99670.56;;;28.73;22.04
74881;BME280;63427;49.654;6.596;2023-05-07T10:59:31;99671.57;;;28.61;22.51
74881;BME280;63427;49.654;6.596;2023-05-07T11:01:50;99669.95;;;28.78;22.43
74881;BME280;63427;49.654;6.596;2023-05-07T11:04:14;99670.64;;;28.29;23.05
74881;BME280;63427;49.654;6.596;2023-05-07T11:06:34;99664.08;;;28.40;22.41
74881;BME280;63427;49.654;6.596;2023-05-07T11:09:00;99664.92;;;28.91;23.15
74881;BME280;63427;49.654;6.596;2023-05-07T11:11:44;99664.99;;;28.58;23.85
74881;BME280;63427;49.654;6.596;2023-05-07T11:13:51;99663.56;;;28.75;23.07
74881;BME280;63427;49.654;6.596;2023-05-07T11:16:18;99662.68;;;28.38;23.93
74881;BME280;63427;49.654;6.596;2023-05-07T11:18:47;99663.44;;;28.59;24.13
74881;BME280;63427;49.654;6.596;2023-05-07T11:21:09;99660.35;;;28.74;22.41
74881;BME280;63427;49.654;6.596;2023-05-07T11:26:02;99661.79;;;28.69;23.61
74881;BME280;63427;49.654;6.596;2023-05-07T11:28:27;99662.61;;;28.52;23.65
74881;BME280;63427;49.654;6.596;2023-05-07T11:30:52;99660.46;;;28.90;22.36
74881;BME280;63427;49.654;6.596;2023-05-07T11:33:18;99661.14;;;28.64;23.38
74881;BME280;63427;49.654;6.596;2023-05-07T11:35:43;99660.77;;;28.68;23.07
74881;BME280;63427;49.654;6.596;2023-05-07T11:38:09;99658.61;;;28.91;22.76
74881;BME280;63427;49.654;6.596;2023-05-07T11:40:34;99659.85;;;28.92;21.78
74881;BME280;63427;49.654;6.596;2023-05-07T11:43:10;99655.56;;;28.93;22.30
74881;BME280;63427;49.654;6.596;2023-05-07T11:45:26;99657.52;;;28.89;21.68
74881;BME280;63427;49.654;6.596;2023-05-07T11:47:51;99655.31;;;29.18;22.45
74881;BME280;63427;49.654;6.596;2023-05-07T11:50:17;99654.88;;;29.23;21.96
74881;BME280;63427;49.654;6.596;2023-05-07T11:52:50;99658.80;;;28.80;21.77
74881;BME280;63427;49.654;6.596;2023-05-07T11:55:09;99654.79;;;29.12;21.57
74881;BME280;63427;49.654;6.596;2023-05-07T11:57:34;99655.46;;;28.96;20.98
74881;BME280;63427;49.654;6.596;2023-05-07T12:00:01;99657.59;;;28.96;22.72
74881;BME280;63427;49.654;6.596;2023-05-07T12:02:26;99656.10;;;29.39;21.34
74881;BME280;63427;49.654;6.596;2023-05-07T12:04:52;99655.72;;;29.50;20.97
74881;BME280;63427;49.654;6.596;2023-05-07T12:07:17;99654.72;;;29.65;20.18
74881;BME280;63427;49.654;6.596;2023-05-07T12:09:44;99657.50;;;29.74;21.58
74881;BME280;63427;49.654;6.596;2023-05-07T12:12:09;99655.29;;;30.06;20.77
74881;BME280;63427;49.654;6.596;2023-05-07T12:14:38;99656.33;;;30.26;20.57
74881;BME280;63427;49.654;6.596;2023-05-07T12:17:01;99655.62;;;29.87;20.90
74881;BME280;63427;49.654;6.596;2023-05-07T12:19:26;99658.65;;;30.13;20.60
74881;BME280;63427;49.654;6.596;2023-05-07T12:21:52;99660.22;;;30.09;20.00
74881;BME280;63427;49.654;6.596;2023-05-07T12:24:17;99656.69;;;30.31;19.76
74881;BME280;63427;49.654;6.596;2023-05-07T12:26:43;99651.64;;;30.48;19.99
74881;BME280;63427;49.654;6.596;2023-05-07T12:29:09;99651.50;;;30.85;21.22
74881;BME280;63427;49.654;6.596;2023-05-07T12:31:34;99646.99;;;31.00;21.54
74881;BME280;63427;49.654;6.596;2023-05-07T12:34:00;99646.08;;;30.91;21.28
74881;BME280;63427;49.654;6.596;2023-05-07T12:36:26;99646.58;;;30.86;20.32
74881;BME280;63427;49.654;6.596;2023-05-07T12:38:51;99650.32;;;31.01;20.25
74881;BME280;63427;49.654;6.596;2023-05-07T12:41:17;99648.37;;;30.88;19.89
74881;BME280;63427;49.654;6.596;2023-05-07T12:43:44;99650.46;;;31.23;19.81
74881;BME280;63427;49.654;6.596;2023-05-07T12:46:08;99649.42;;;30.79;19.89
74881;BME280;63427;49.654;6.596;2023-05-07T12:48:35;99651.82;;;30.63;20.04
74881;BME280;63427;49.654;6.596;2023-05-07T12:51:00;99650.20;;;30.36;20.44
74881;BME280;63427;49.654;6.596;2023-05-07T12:53:30;99651.10;;;29.27;21.04
74881;BME280;63427;49.654;6.596;2023-05-07T12:55:52;99648.90;;;30.75;20.81
74881;BME280;63427;49.654;6.596;2023-05-07T12:58:17;99649.59;;;30.90;20.90
74881;BME280;63427;49.654;6.596;2023-05-07T13:00:42;99650.14;;;30.96;20.45
74881;BME280;63427;49.654;6.596;2023-05-07T13:03:07;99650.91;;;30.54;20.35
74881;BME280;63427;49.654;6.596;2023-05-07T13:05:33;99651.39;;;30.94;19.86
74881;BME280;63427;49.654;6.596;2023-05-07T13:07:59;99651.31;;;30.72;20.15
74881;BME280;63427;49.654;6.596;2023-05-07T13:10:25;99652.48;;;30.53;20.15
74881;BME280;63427;49.654;6.596;2023-05-07T13:12:50;99650.64;;;30.41;20.11
74881;BME280;63427;49.654;6.596;2023-05-07T13:15:17;99651.74;;;30.33;20.66
74881;BME280;63427;49.654;6.596;2023-05-07T13:17:41;99658.47;;;30.27;21.34
74881;BME280;63427;49.654;6.596;2023-05-07T13:20:09;99659.60;;;30.18;21.42
74881;BME280;63427;49.654;6.596;2023-05-07T13:22:33;99658.74;;;30.02;21.64
74881;BME280;63427;49.654;6.596;2023-05-07T13:25:01;99654.66;;;29.80;21.83
74881;BME280;63427;49.654;6.596;2023-05-07T13:27:24;99653.72;;;29.61;21.92
74881;BME280;63427;49.654;6.596;2023-05-07T13:29:50;99654.33;;;30.20;22.50
74881;BME280;63427;49.654;6.596;2023-05-07T13:32:15;99657.56;;;28.71;23.05
74881;BME280;63427;49.654;6.596;2023-05-07T13:34:41;99652.86;;;29.37;23.80
74881;BME280;63427;49.654;6.596;2023-05-07T13:37:07;99655.30;;;29.00;23.66
74881;BME280;63427;49.654;6.596;2023-05-07T13:39:33;99653.59;;;29.47;23.92
74881;BME280;63427;49.654;6.596;2023-05-07T13:41:58;99654.67;;;29.40;23.61
74881;BME280;63427;49.654;6.596;2023-05-07T13:44:24;99652.28;;;29.39;23.14
74881;BME280;63427;49.654;6.596;2023-05-07T13:46:50;99650.21;;;29.58;23.59
74881;BME280;63427;49.654;6.596;2023-05-07T13:49:16;99645.37;;;29.32;24.06
74881;BME280;63427;49.654;6.596;2023-05-07T13:51:41;99643.05;;;29.26;23.07
74881;BME280;63427;49.654;6.596;2023-05-07T13:54:07;99644.19;;;29.18;23.08
74881;BME280;63427;49.654;6.596;2023-05-07T13:56:33;99645.02;;;29.17;23.91
74881;BME280;63427;49.654;6.596;2023-05-07T13:58:58;99643.52;;;29.42;22.99
74881;BME280;63427;49.654;6.596;2023-05-07T14:01:24;99646.90;;;29.19;23.18
74881;BME280;63427;49.654;6.596;2023-05-07T14:03:50;99644.46;;;28.91;23.74
74881;BME280;63427;49.654;6.596;2023-05-07T14:06:15;99644.45;;;29.20;22.48
74881;BME280;63427;49.654;6.596;2023-05-07T14:08:41;99645.44;;;28.41;22.56
74881;BME280;63427;49.654;6.596;2023-05-07T14:11:07;99643.36;;;29.18;23.19
74881;BME280;63427;49.654;6.596;2023-05-07T14:13:33;99643.91;;;29.24;23.58
74881;BME280;63427;49.654;6.596;2023-05-07T14:15:58;99644.52;;;29.53;23.93
74881;BME280;63427;49.654;6.596;2023-05-07T14:18:26;99646.01;;;29.55;23.48
74881;BME280;63427;49.654;6.596;2023-05-07T14:20:50;99645.90;;;29.44;22.21
74881;BME280;63427;49.654;6.596;2023-05-07T14:23:15;99645.84;;;29.07;23.35